createdAt,value
2022-11-07T00:00:15.557Z,13.28
2022-11-07T00:03:07.972Z,13.29
2022-11-07T00:05:58.369Z,13.28
2022-11-07T00:08:52.654Z,13.30
2022-11-07T00:11:46.007Z,13.30
2022-11-07T00:14:38.626Z,13.30
2022-11-07T00:17:31.448Z,13.29
2022-11-07T00:20:21.397Z,13.30
2022-11-07T00:23:13.516Z,13.29
2022-11-07T00:26:04.951Z,13.29
2022-11-07T00:28:56.979Z,13.28
2022-11-07T00:31:50.067Z,13.29
2022-11-07T00:34:42.376Z,13.31
2022-11-07T00:37:34.375Z,13.29
2022-11-07T00:40:26.366Z,13.30
2022-11-07T00:43:18.735Z,13.30
2022-11-07T00:46:12.211Z,13.30
2022-11-07T00:49:05.181Z,13.32
2022-11-07T00:51:58.130Z,13.29
2022-11-07T00:54:48.177Z,13.30
2022-11-07T00:57:41.293Z,13.30
2022-11-07T01:00:33.729Z,13.31
2022-11-07T01:03:42.964Z,13.30
2022-11-07T01:06:36.270Z,13.30
2022-11-07T01:09:28.566Z,13.31
2022-11-07T01:12:20.539Z,13.31
2022-11-07T01:15:12.788Z,13.31
2022-11-07T01:18:05.266Z,13.31
2022-11-07T01:20:55.570Z,13.30
2022-11-07T01:23:47.703Z,13.29
2022-11-07T01:26:41.936Z,13.31
2022-11-07T01:29:34.528Z,13.31
2022-11-07T01:32:27.447Z,13.31
2022-11-07T01:35:20.491Z,13.32
2022-11-07T01:38:13.597Z,13.32
2022-11-07T01:41:21.518Z,13.31
2022-11-07T01:44:48.549Z,13.30
2022-11-07T01:47:41.251Z,13.30
2022-11-07T01:50:34.110Z,13.32
2022-11-07T01:53:27.766Z,13.32
2022-11-07T01:56:23.245Z,13.32
2022-11-07T01:59:19.687Z,13.32
2022-11-07T02:02:14.241Z,13.34
2022-11-07T02:05:08.638Z,13.33
2022-11-07T02:08:02.544Z,13.35
2022-11-07T02:10:55.943Z,13.34
2022-11-07T02:13:48.165Z,13.35
2022-11-07T02:16:41.004Z,13.34
2022-11-07T02:19:38.053Z,13.34
2022-11-07T02:22:37.682Z,13.35
2022-11-07T02:25:31.091Z,13.35
2022-11-07T02:28:25.137Z,13.35
2022-11-07T02:31:17.331Z,13.37
2022-11-07T02:34:09.337Z,13.35
2022-11-07T02:37:03.875Z,13.34
2022-11-07T02:39:56.090Z,13.33
2022-11-07T02:42:49.339Z,13.34
2022-11-07T02:45:46.269Z,13.32
2022-11-07T02:48:46.284Z,13.34
2022-11-07T02:51:38.526Z,13.34
2022-11-07T02:54:30.762Z,13.34
2022-11-07T02:57:23.205Z,13.35
2022-11-07T03:00:19.055Z,13.34
2022-11-07T03:03:11.824Z,13.37
2022-11-07T03:06:04.284Z,13.37
2022-11-07T03:08:56.456Z,13.37
2022-11-07T03:11:48.349Z,13.38
2022-11-07T03:14:40.533Z,13.36
2022-11-07T03:17:31.524Z,13.35
2022-11-07T03:20:23.926Z,13.34
2022-11-07T03:23:18.052Z,13.32
2022-11-07T03:26:10.769Z,13.31
2022-11-07T03:29:02.720Z,13.30
2022-11-07T03:31:54.762Z,13.29
2022-11-07T03:34:46.785Z,13.28
2022-11-07T03:37:38.610Z,13.27
2022-11-07T03:40:30.941Z,13.26
2022-11-07T03:43:23.763Z,13.27
2022-11-07T03:46:16.430Z,13.26
2022-11-07T03:49:08.870Z,13.24
2022-11-07T03:51:59.180Z,13.22
2022-11-07T03:54:52.036Z,13.19
2022-11-07T03:57:44.473Z,13.17
2022-11-07T04:00:38.014Z,13.16
2022-11-07T04:03:31.054Z,13.13
2022-11-07T04:06:23.976Z,13.12
2022-11-07T04:09:16.183Z,13.09
2022-11-07T04:12:26.952Z,13.09
2022-11-07T04:15:36.188Z,13.08
2022-11-07T04:18:28.012Z,13.06
2022-11-07T04:21:19.874Z,13.05
2022-11-07T04:24:12.267Z,13.02
2022-11-07T04:27:21.311Z,13.00
2022-11-07T04:30:26.475Z,12.99
2022-11-07T04:33:19.191Z,12.98
2022-11-07T04:36:13.000Z,12.98
2022-11-07T04:39:05.821Z,12.97
2022-11-07T04:41:58.033Z,12.96
2022-11-07T04:44:48.253Z,12.95
2022-11-07T04:47:41.263Z,12.93
2022-11-07T04:50:33.338Z,12.91
2022-11-07T04:53:25.572Z,12.90
2022-11-07T04:56:17.872Z,12.88
2022-11-07T04:59:10.116Z,12.87
2022-11-07T05:02:02.861Z,12.86
2022-11-07T05:04:55.341Z,12.87
2022-11-07T05:07:48.269Z,12.86
2022-11-07T05:10:42.052Z,12.85
2022-11-07T05:13:33.891Z,12.85
2022-11-07T05:16:25.924Z,12.85
2022-11-07T05:19:20.275Z,12.85
2022-11-07T05:22:30.466Z,12.85
2022-11-07T05:25:22.039Z,12.82
2022-11-07T05:28:16.064Z,12.84
2022-11-07T05:31:09.700Z,12.83
2022-11-07T05:34:02.076Z,12.84
2022-11-07T05:36:54.515Z,12.83
2022-11-07T05:39:49.882Z,12.82
2022-11-07T05:42:45.135Z,12.81
2022-11-07T05:45:39.130Z,12.81
2022-11-07T05:48:32.822Z,12.81
2022-11-07T05:51:22.864Z,12.80
2022-11-07T05:54:15.511Z,12.80
2022-11-07T05:57:07.461Z,12.80
2022-11-07T05:59:59.982Z,12.80
2022-11-07T06:03:00.672Z,12.80
2022-11-07T06:05:53.469Z,12.82
2022-11-07T06:08:45.537Z,12.82
2022-11-07T06:11:37.398Z,12.83
2022-11-07T06:14:29.562Z,12.84
2022-11-07T06:17:22.493Z,12.84
2022-11-07T06:20:16.489Z,12.87
2022-11-07T06:23:10.527Z,12.88
2022-11-07T06:26:03.853Z,12.86
2022-11-07T06:28:56.731Z,12.89
2022-11-07T06:31:48.716Z,12.90
2022-11-07T06:34:40.345Z,12.91
2022-11-07T06:37:32.784Z,12.91
2022-11-07T06:40:25.220Z,12.91
2022-11-07T06:43:20.586Z,12.91
2022-11-07T06:49:28.977Z,12.88
2022-11-07T06:52:42.101Z,12.89
2022-11-07T06:55:57.266Z,12.89
2022-11-07T06:59:14.025Z,12.87
2022-11-07T07:02:25.983Z,12.88
2022-11-07T07:05:27.082Z,12.86
2022-11-07T07:08:19.497Z,12.88
2022-11-07T07:11:10.759Z,12.86
2022-11-07T07:14:04.033Z,12.84
2022-11-07T07:16:59.284Z,12.87
2022-11-07T07:19:53.083Z,12.84
2022-11-07T07:22:50.276Z,12.86
2022-11-07T07:25:47.900Z,12.85
2022-11-07T07:28:40.062Z,12.85
2022-11-07T07:31:34.215Z,12.84
2022-11-07T07:34:27.607Z,12.86
2022-11-07T07:37:21.096Z,12.85
2022-11-07T07:40:15.501Z,12.86
2022-11-07T07:43:08.060Z,12.87
2022-11-07T07:46:03.705Z,12.88
2022-11-07T07:48:56.141Z,12.86
2022-11-07T07:51:49.862Z,12.87
2022-11-07T07:54:43.263Z,12.87
2022-11-07T07:57:39.143Z,12.88
2022-11-07T08:00:31.458Z,12.91
2022-11-07T08:03:22.057Z,12.95
2022-11-07T08:06:14.721Z,12.94
2022-11-07T08:09:05.302Z,12.97
2022-11-07T08:11:57.205Z,12.98
2022-11-07T08:14:49.443Z,13.03
2022-11-07T08:17:42.281Z,13.07
2022-11-07T08:20:35.063Z,13.12
2022-11-07T08:23:28.530Z,13.18
2022-11-07T08:26:21.796Z,13.23
2022-11-07T08:29:12.390Z,13.28
2022-11-07T08:32:05.920Z,13.30
2022-11-07T08:34:58.468Z,13.35
2022-11-07T08:37:53.194Z,13.40
2022-11-07T08:40:45.076Z,13.43
2022-11-07T08:43:38.588Z,13.49
2022-11-07T08:46:31.855Z,13.54
2022-11-07T08:49:24.279Z,13.60
2022-11-07T08:52:14.173Z,13.61
2022-11-07T08:55:09.065Z,13.65
2022-11-07T08:58:03.530Z,13.71
2022-11-07T09:00:55.698Z,13.75
2022-11-07T09:03:54.728Z,13.78
2022-11-07T09:06:49.970Z,13.83
2022-11-07T09:09:41.725Z,13.89
2022-11-07T09:12:33.607Z,13.93
2022-11-07T09:15:25.788Z,14.00
2022-11-07T09:18:19.046Z,14.07
2022-11-07T09:21:11.352Z,14.15
2022-11-07T09:24:03.221Z,14.22
2022-11-07T09:26:55.141Z,14.30
2022-11-07T09:29:47.175Z,14.36
2022-11-07T09:32:47.239Z,14.38
2022-11-07T09:35:39.484Z,14.38
2022-11-07T09:38:33.304Z,14.44
2022-11-07T09:41:31.271Z,14.47
2022-11-07T09:44:50.431Z,14.54
2022-11-07T09:47:47.014Z,14.59
2022-11-07T09:50:42.696Z,14.59
2022-11-07T09:53:39.897Z,14.65
2022-11-07T09:56:35.957Z,14.67
2022-11-07T09:59:38.336Z,14.69
2022-11-07T10:02:44.106Z,14.70
2022-11-07T10:05:48.633Z,14.72
2022-11-07T10:08:47.626Z,14.73
2022-11-07T10:11:46.558Z,14.74
2022-11-07T10:14:51.962Z,14.79
2022-11-07T10:17:55.116Z,14.90
2022-11-07T10:21:16.229Z,15.02
2022-11-07T10:24:33.390Z,15.14
2022-11-07T10:27:25.672Z,15.27
2022-11-07T10:30:18.183Z,15.40
2022-11-07T10:33:22.595Z,15.50
2022-11-07T10:36:25.273Z,15.62
2022-11-07T10:39:20.501Z,15.69
2022-11-07T10:42:18.754Z,15.79
2022-11-07T10:45:17.801Z,15.90
2022-11-07T10:48:14.980Z,16.00
2022-11-07T10:51:09.046Z,16.09
2022-11-07T10:54:01.423Z,16.17
2022-11-07T10:56:56.105Z,16.24
2022-11-07T10:59:58.626Z,16.28
2022-11-07T11:02:52.047Z,16.39
2022-11-07T11:05:47.410Z,16.49
2022-11-07T11:08:40.906Z,16.57
2022-11-07T11:11:37.174Z,16.63
2022-11-07T11:14:30.685Z,16.72
2022-11-07T11:17:28.081Z,16.81
2022-11-07T11:20:36.082Z,16.88
2022-11-07T11:23:31.838Z,16.94
2022-11-07T11:26:30.471Z,17.00
2022-11-07T11:29:35.395Z,17.09
2022-11-07T11:32:34.295Z,17.14
2022-11-07T11:35:41.738Z,17.21
2022-11-07T11:38:38.044Z,17.27
2022-11-07T11:41:39.815Z,17.31
2022-11-07T11:44:34.347Z,17.36
2022-11-07T11:47:34.492Z,17.41
2022-11-07T11:50:37.005Z,17.45
2022-11-07T11:53:29.447Z,17.48
2022-11-07T11:56:40.947Z,17.49
2022-11-07T12:00:12.698Z,17.47
2022-11-07T12:03:31.764Z,17.45
2022-11-07T12:06:29.947Z,17.51
2022-11-07T12:09:33.437Z,17.54
2022-11-07T12:12:39.807Z,17.52
2022-11-07T12:16:01.239Z,17.52
2022-11-07T12:19:00.656Z,17.46
2022-11-07T12:22:02.597Z,17.44
2022-11-07T12:25:03.438Z,17.45
2022-11-07T12:28:05.097Z,17.45
2022-11-07T12:31:07.368Z,17.52
2022-11-07T12:34:10.455Z,17.53
2022-11-07T12:37:23.377Z,17.49
2022-11-07T12:40:29.647Z,17.52
2022-11-07T12:43:39.595Z,17.54
2022-11-07T12:46:45.345Z,17.58
2022-11-07T12:49:52.947Z,17.57
2022-11-07T12:53:00.135Z,17.59
2022-11-07T12:55:59.448Z,17.59
2022-11-07T12:58:53.255Z,17.63
2022-11-07T13:01:53.930Z,17.64
2022-11-07T13:04:50.827Z,17.66
2022-11-07T13:07:49.791Z,17.62
2022-11-07T13:10:49.185Z,17.61
2022-11-07T13:14:06.507Z,17.58
2022-11-07T13:17:13.755Z,17.57
2022-11-07T13:20:22.608Z,17.59
2022-11-07T13:23:27.363Z,17.60
2022-11-07T13:26:46.858Z,17.60
2022-11-07T13:29:41.165Z,17.57
2022-11-07T13:32:41.193Z,17.53
2022-11-07T13:35:34.896Z,17.49
2022-11-07T13:38:29.768Z,17.45
2022-11-07T13:41:24.312Z,17.40
2022-11-07T13:44:27.698Z,17.37
2022-11-07T13:47:26.267Z,17.33
2022-11-07T13:50:25.594Z,17.28
2022-11-07T13:53:22.335Z,17.25
2022-11-07T13:56:29.407Z,17.20
2022-11-07T13:59:36.884Z,17.15
2022-11-07T14:02:31.255Z,17.10
2022-11-07T14:05:27.432Z,17.04
2022-11-07T14:08:23.590Z,16.98
2022-11-07T14:11:20.785Z,16.92
2022-11-07T14:14:13.343Z,16.88
2022-11-07T14:17:05.453Z,16.81
2022-11-07T14:20:06.093Z,16.77
2022-11-07T14:23:01.201Z,16.71
2022-11-07T14:26:00.617Z,16.65
2022-11-07T14:28:54.117Z,16.59
2022-11-07T14:31:48.975Z,16.53
2022-11-07T14:34:47.269Z,16.46
2022-11-07T14:37:39.308Z,16.38
2022-11-07T14:40:32.145Z,16.30
2022-11-07T14:43:27.199Z,16.24
2022-11-07T14:46:23.761Z,16.13
2022-11-07T14:49:22.168Z,16.04
2022-11-07T14:52:21.476Z,15.94
2022-11-07T14:55:25.893Z,15.83
2022-11-07T14:58:22.633Z,15.72
2022-11-07T15:01:25.657Z,15.60
2022-11-07T15:04:30.933Z,15.49
2022-11-07T15:07:36.570Z,15.35
2022-11-07T15:10:33.563Z,15.23
2022-11-07T15:13:29.110Z,15.09
2022-11-07T15:16:24.075Z,14.97
2022-11-07T15:19:22.393Z,14.87
2022-11-07T15:22:30.192Z,14.75
2022-11-07T15:25:36.871Z,14.64
2022-11-07T15:28:31.319Z,14.51
2022-11-07T15:31:26.546Z,14.42
2022-11-07T15:34:33.667Z,14.29
2022-11-07T15:37:29.431Z,14.17
2022-11-07T15:40:21.958Z,14.05
2022-11-07T15:43:14.315Z,13.92
2022-11-07T15:46:26.617Z,13.82
2022-11-07T15:49:18.719Z,13.70
2022-11-07T15:52:12.990Z,13.59
2022-11-07T15:55:05.255Z,13.49
2022-11-07T15:57:57.471Z,13.39
2022-11-07T16:00:50.473Z,13.29
2022-11-07T16:03:43.726Z,13.20
2022-11-07T16:06:37.187Z,13.10
2022-11-07T16:09:34.501Z,12.99
2022-11-07T16:12:26.375Z,12.89
2022-11-07T16:15:20.395Z,12.80
2022-11-07T16:18:20.491Z,12.72
2022-11-07T16:21:12.300Z,12.61
2022-11-07T16:24:04.335Z,12.51
2022-11-07T16:26:57.043Z,12.42
2022-11-07T16:29:49.119Z,12.32
2022-11-07T16:32:39.402Z,12.22
2022-11-07T16:35:31.884Z,12.12
2022-11-07T16:38:25.420Z,12.05
2022-11-07T16:41:17.240Z,11.97
2022-11-07T16:44:09.684Z,11.89
2022-11-07T16:47:02.426Z,11.82
2022-11-07T16:49:56.126Z,11.74
2022-11-07T16:52:48.364Z,11.66
2022-11-07T16:55:41.390Z,11.58
2022-11-07T16:58:34.836Z,11.50
2022-11-07T17:01:29.559Z,11.43
2022-11-07T17:04:21.811Z,11.36
2022-11-07T17:07:17.979Z,11.29
2022-11-07T17:10:14.967Z,11.21
2022-11-07T17:13:07.901Z,11.15
2022-11-07T17:15:59.948Z,11.09
2022-11-07T17:18:54.287Z,11.02
2022-11-07T17:21:49.609Z,10.94
2022-11-07T17:24:43.213Z,10.88
2022-11-07T17:27:36.089Z,10.81
2022-11-07T17:30:29.742Z,10.74
2022-11-07T17:33:22.577Z,10.70
2022-11-07T17:36:36.816Z,10.63
2022-11-07T17:39:30.974Z,10.56
2022-11-07T17:42:24.069Z,10.50
2022-11-07T17:45:17.537Z,10.46
2022-11-07T17:48:11.738Z,10.40
2022-11-07T17:51:04.266Z,10.35
2022-11-07T17:53:56.699Z,10.31
2022-11-07T17:56:48.733Z,10.26
2022-11-07T17:59:45.627Z,10.24
2022-11-07T18:02:38.600Z,10.20
2022-11-07T18:05:33.408Z,10.17
2022-11-07T18:08:46.309Z,10.16
2022-11-07T18:11:38.652Z,10.12
2022-11-07T18:14:30.832Z,10.11
2022-11-07T18:17:24.147Z,10.09
2022-11-07T18:20:19.641Z,10.08
2022-11-07T18:23:11.673Z,10.07
2022-11-07T18:26:42.989Z,10.06
2022-11-07T18:29:35.837Z,10.04
2022-11-07T18:32:36.365Z,10.04
2022-11-07T18:35:29.113Z,10.03
2022-11-07T18:38:21.344Z,10.02
2022-11-07T18:41:16.252Z,10.02
2022-11-07T18:44:08.280Z,9.98
2022-11-07T18:47:00.512Z,9.98
2022-11-07T18:49:56.936Z,9.98
2022-11-07T18:52:49.669Z,9.96
2022-11-07T18:55:41.934Z,9.95
2022-11-07T18:58:36.283Z,9.93
2022-11-07T19:01:31.124Z,9.91
2022-11-07T19:04:23.558Z,9.89
2022-11-07T19:07:14.623Z,9.85
2022-11-07T19:10:09.398Z,9.81
2022-11-07T19:13:06.981Z,9.79
2022-11-07T19:16:04.978Z,9.75
2022-11-07T19:18:56.915Z,9.72
2022-11-07T19:21:49.055Z,9.67
2022-11-07T19:24:41.969Z,9.64
2022-11-07T19:27:35.223Z,9.61
2022-11-07T19:30:28.641Z,9.57
2022-11-07T19:33:21.378Z,9.53
2022-11-07T19:36:17.828Z,9.50
2022-11-07T19:39:10.475Z,9.45
2022-11-07T19:42:02.695Z,9.41
2022-11-07T19:44:56.456Z,9.35
2022-11-07T19:47:49.009Z,9.29
2022-11-07T19:50:41.787Z,9.24
2022-11-07T19:53:34.506Z,9.20
2022-11-07T19:56:29.130Z,9.17
2022-11-07T19:59:20.838Z,9.10
2022-11-07T20:02:32.441Z,9.06
2022-11-07T20:05:27.457Z,9.01
2022-11-07T20:08:19.451Z,8.97
2022-11-07T20:11:13.727Z,8.92
2022-11-07T20:14:06.253Z,8.87
2022-11-07T20:16:58.004Z,8.85
2022-11-07T20:19:49.023Z,8.81
2022-11-07T20:22:46.473Z,8.76
2022-11-07T20:25:41.528Z,8.71
2022-11-07T20:28:33.358Z,8.66
2022-11-07T20:31:28.162Z,8.64
2022-11-07T20:34:21.742Z,8.60
2022-11-07T20:37:19.641Z,8.56
2022-11-07T20:40:15.768Z,8.52
2022-11-07T20:43:09.105Z,8.50
2022-11-07T20:46:06.727Z,8.47
2022-11-07T20:48:59.123Z,8.45
2022-11-07T20:51:49.653Z,8.42
2022-11-07T20:54:42.883Z,8.39
2022-11-07T20:57:34.365Z,8.35
2022-11-07T21:00:27.479Z,8.32
2022-11-07T21:03:19.686Z,8.31
2022-11-07T21:06:12.548Z,8.30
2022-11-07T21:09:05.902Z,8.27
2022-11-07T21:11:58.125Z,8.26
2022-11-07T21:14:51.404Z,8.24
2022-11-07T21:17:44.252Z,8.23
2022-11-07T21:20:36.086Z,8.22
2022-11-07T21:23:27.939Z,8.21
2022-11-07T21:26:21.861Z,8.20
2022-11-07T21:29:15.665Z,8.20
2022-11-07T21:32:08.940Z,8.19
2022-11-07T21:35:00.947Z,8.20
2022-11-07T21:37:53.479Z,8.19
2022-11-07T21:40:45.799Z,8.17
2022-11-07T21:43:38.164Z,8.18
2022-11-07T21:46:29.486Z,8.18
2022-11-07T21:49:21.512Z,8.17
2022-11-07T21:52:13.928Z,8.16
2022-11-07T21:55:06.690Z,8.15
2022-11-07T21:57:59.066Z,8.15
2022-11-07T22:00:50.893Z,8.15
2022-11-07T22:04:05.269Z,8.14
2022-11-07T22:06:55.913Z,8.14
2022-11-07T22:09:47.695Z,8.13
2022-11-07T22:12:39.273Z,8.13
2022-11-07T22:15:31.298Z,8.13
2022-11-07T22:18:23.397Z,8.11
2022-11-07T22:21:18.118Z,8.10
2022-11-07T22:24:11.207Z,8.09
2022-11-07T22:27:03.812Z,8.09
2022-11-07T22:29:55.754Z,8.08
2022-11-07T22:32:48.604Z,8.09
2022-11-07T22:35:40.684Z,8.08
2022-11-07T22:38:34.062Z,8.09
2022-11-07T22:41:27.579Z,8.09
2022-11-07T22:44:19.806Z,8.09
2022-11-07T22:47:12.040Z,8.11
2022-11-07T22:50:04.551Z,8.12
2022-11-07T22:52:56.536Z,8.13
2022-11-07T22:55:48.064Z,8.14
2022-11-07T22:58:40.366Z,8.16
2022-11-07T23:01:34.011Z,8.19
2022-11-07T23:04:32.466Z,8.20
2022-11-07T23:07:25.867Z,8.21
2022-11-07T23:10:17.905Z,8.25
2022-11-07T23:13:10.358Z,8.26
2022-11-07T23:16:02.936Z,8.27
2022-11-07T23:18:55.240Z,8.30
2022-11-07T23:21:47.682Z,8.32
2022-11-07T23:24:40.122Z,8.35
2022-11-07T23:27:32.772Z,8.37
2022-11-07T23:30:24.836Z,8.40
2022-11-07T23:33:16.921Z,8.41
2022-11-07T23:36:12.459Z,8.43
2022-11-07T23:39:10.043Z,8.45
2022-11-07T23:42:02.821Z,8.47
2022-11-07T23:45:11.897Z,8.49
2022-11-07T23:48:22.248Z,8.54
2022-11-07T23:51:15.539Z,8.56
2022-11-07T23:54:25.970Z,8.57
2022-11-07T23:57:17.816Z,8.60
